Time;durP1;ratioP1;P1;durP2;ratioP2;P2;SDS_P1;SDS_P2;PMS_P1;PMS_P2;Temp;Humidity;BMP_temperature;BMP_pressure;BME280_temperature;BME280_humidity;BME280_pressure;Samples;Min_cycle;Max_cycle;Signal;HPM_P1;HPM_P2
2021/12/27 00:01:58;;;;;;;20.25;10.25;;;;;;;0.49;85.80;100310.00;10461493;28;20472;-83
2021/12/27 00:07:00;;;;;;;20.90;10.77;;;;;;;0.46;85.89;100301.44;10462027;28;20141;-83
2021/12/27 00:12:02;;;;;;;18.52;9.98;;;;;;;0.45;85.58;100294.63;10443049;28;20083;-84
2021/12/27 00:17:04;;;;;;;20.48;10.60;;;;;;;0.49;86.20;100288.06;10491689;28;20048;-84
2021/12/27 00:22:05;;;;;;;20.73;11.07;;;;;;;0.51;85.78;100294.09;10478177;28;20488;-84
2021/12/27 00:27:07;;;;;;;18.23;9.98;;;;;;;0.52;85.70;100283.19;10470027;28;20051;-83
2021/12/27 00:32:09;;;;;;;19.17;10.32;;;;;;;0.57;86.14;100280.91;10469959;28;20044;-83
2021/12/27 00:37:11;;;;;;;20.67;11.20;;;;;;;0.55;86.37;100275.75;10475710;28;20040;-84
2021/12/27 00:42:12;;;;;;;22.48;11.48;;;;;;;0.56;86.36;100254.66;10452526;28;20044;-83
2021/12/27 00:47:14;;;;;;;21.70;10.90;;;;;;;0.60;86.24;100251.53;10459545;28;20041;-83
2021/12/27 00:52:16;;;;;;;20.25;10.55;;;;;;;0.62;86.35;100257.56;10457663;28;20071;-82
2021/12/27 00:57:17;;;;;;;21.77;10.57;;;;;;;0.66;86.55;100255.19;10480125;28;20450;-83
2021/12/27 01:02:19;;;;;;;22.02;10.80;;;;;;;0.67;86.38;100251.88;10451914;28;20404;-83
2021/12/27 01:07:21;;;;;;;19.65;10.70;;;;;;;0.65;86.63;100249.25;10498058;28;20523;-82
2021/12/27 01:17:25;;;;;;;22.30;11.45;;;;;;;0.71;86.26;100261.41;10454619;28;20049;-83
2021/12/27 01:22:26;;;;;;;20.05;10.82;;;;;;;0.71;86.37;100261.41;10451872;28;20150;-84
2021/12/27 01:27:28;;;;;;;19.77;10.43;;;;;;;0.70;86.30;100264.72;10458168;28;20049;-83
2021/12/27 01:32:35;;;;;;;20.02;10.70;;;;;;;0.70;87.48;100254.59;10479261;28;20032;-83
2021/12/27 01:37:37;;;;;;;22.13;11.20;;;;;;;0.66;88.19;100262.78;10460563;28;20044;-83
2021/12/27 01:43:05;;;;;;;20.45;11.00;;;;;;;0.59;88.82;100249.78;10438478;28;20051;-83
2021/12/27 01:48:08;;;;;;;19.30;10.38;;;;;;;0.60;89.75;100245.56;10458946;28;20500;-82
2021/12/27 01:53:11;;;;;;;18.60;11.35;;;;;;;0.54;89.99;100241.06;10465530;28;20048;-82
2021/12/27 01:58:14;;;;;;;19.75;11.02;;;;;;;0.55;90.67;100229.25;10458565;28;20078;-82
2021/12/27 02:03:17;;;;;;;20.92;11.13;;;;;;;0.55;90.69;100230.13;10477462;28;20047;-82
2021/12/27 02:08:19;;;;;;;19.63;11.10;;;;;;;0.52;90.67;100224.03;10469191;28;20051;-82
2021/12/27 02:13:23;;;;;;;20.13;11.10;;;;;;;0.56;90.96;100220.84;10459439;28;20044;-83
2021/12/27 02:18:25;;;;;;;22.67;12.23;;;;;;;0.60;91.39;100228.72;10442889;28;20087;-83
2021/12/27 02:23:27;;;;;;;19.17;10.38;;;;;;;0.59;90.60;100221.91;10438392;28;20518;-82
2021/12/27 02:28:29;;;;;;;22.92;11.77;;;;;;;0.66;90.77;100217.16;10468143;28;20045;-83
2021/12/27 02:33:31;;;;;;;21.17;11.40;;;;;;;0.65;90.77;100203.63;10485033;28;20048;-82
2021/12/27 02:38:36;;;;;;;19.55;10.98;;;;;;;0.71;91.00;100208.16;10466875;28;20048;-82
2021/12/27 02:43:41;;;;;;;18.38;9.90;;;;;;;0.74;91.05;100191.44;10459206;28;20045;-83
2021/12/27 02:48:48;;;;;;;20.42;10.98;;;;;;;0.74;90.99;100180.41;10453160;28;20079;-83
2021/12/27 02:53:49;;;;;;;20.27;10.50;;;;;;;0.79;91.12;100179.00;10463343;28;20045;-83
2021/12/27 02:58:51;;;;;;;21.95;11.35;;;;;;;0.79;90.77;100184.06;10443209;28;20040;-83
2021/12/27 03:03:53;;;;;;;19.77;10.82;;;;;;;0.84;91.05;100180.13;10465985;28;20319;-83
2021/12/27 03:08:54;;;;;;;19.35;11.55;;;;;;;0.86;91.20;100176.00;10439366;28;20045;-83
2021/12/27 03:13:56;;;;;;;20.55;10.30;;;;;;;0.90;91.15;100177.91;10455233;28;20048;-82
2021/12/27 03:18:58;;;;;;;19.55;9.90;;;;;;;0.94;91.60;100178.94;10470328;28;20128;-83
2021/12/27 03:24:00;;;;;;;18.42;10.40;;;;;;;1.02;91.30;100181.88;10478864;28;20052;-83
2021/12/27 03:29:01;;;;;;;19.63;10.65;;;;;;;1.08;91.01;100174.63;10462651;28;20037;-83
2021/12/27 03:34:04;;;;;;;24.85;11.55;;;;;;;1.13;91.17;100170.66;10457157;28;20053;-82
2021/12/27 03:39:09;;;;;;;25.42;10.68;;;;;;;1.15;91.28;100164.00;10471085;28;20158;-83
2021/12/27 03:44:11;;;;;;;20.58;10.55;;;;;;;1.21;91.35;100164.31;10466948;28;20045;-83
2021/12/27 03:49:13;;;;;;;20.48;11.10;;;;;;;1.23;91.33;100170.31;10465511;28;20053;-83
2021/12/27 03:54:15;;;;;;;19.58;10.68;;;;;;;1.23;91.45;100160.16;10481603;28;20045;-83
2021/12/27 03:59:36;;;;;;;21.90;10.77;;;;;;;1.23;91.21;100162.69;10465743;28;20059;-83
2021/12/27 04:04:38;;;;;;;;;;;;;;;1.30;91.60;100160.50;10466900;28;20075;-83
2021/12/27 04:09:42;;;;;;;27.70;12.07;;;;;;;1.36;92.03;100154.06;10445442;28;20012;-83
2021/12/27 04:14:44;;;;;;;23.08;11.80;;;;;;;1.36;92.00;100143.03;10440561;28;20045;-83
2021/12/27 04:19:46;;;;;;;27.13;11.18;;;;;;;1.41;92.59;100142.50;10482090;28;20086;-83
2021/12/27 04:24:48;;;;;;;24.08;12.40;;;;;;;1.43;92.50;100135.78;10473574;28;20041;-82
2021/12/27 04:29:50;;;;;;;28.02;11.70;;;;;;;1.47;92.29;100131.75;10458830;28;20419;-83
2021/12/27 04:34:52;;;;;;;26.35;11.85;;;;;;;1.46;92.66;100124.91;10469083;28;20041;-84
2021/12/27 04:39:56;;;;;;;22.95;11.40;;;;;;;1.49;92.54;100114.94;10455797;28;20412;-84
2021/12/27 04:44:59;;;;;;;32.83;12.57;;;;;;;1.54;92.51;100118.56;10462054;28;20048;-84
2021/12/27 04:50:01;;;;;;;27.95;10.88;;;;;;;1.57;92.66;100121.25;10460481;28;20439;-84
2021/12/27 04:55:04;;;;;;;22.80;11.85;;;;;;;1.55;92.58;100120.31;10499499;28;20139;-84
2021/12/27 05:00:07;;;;;;;22.75;10.63;;;;;;;1.60;92.88;100112.06;10465625;28;20044;-84
2021/12/27 05:05:10;;;;;;;19.73;10.30;;;;;;;1.67;92.57;100111.56;10443560;28;20037;-84
2021/12/27 05:10:12;;;;;;;24.98;11.27;;;;;;;1.70;92.58;100115.13;10446837;28;20045;-84
2021/12/27 05:15:13;;;;;;;28.52;11.52;;;;;;;1.74;93.14;100106.00;10458447;28;20381;-84
2021/12/27 05:20:15;;;;;;;25.35;11.13;;;;;;;1.75;92.38;100100.09;10429110;28;20084;-84
2021/12/27 05:25:17;;;;;;;22.02;11.55;;;;;;;1.79;92.77;100098.59;10441002;28;20045;-84
2021/12/27 05:30:19;;;;;;;21.15;10.93;;;;;;;1.80;93.28;100080.88;10461911;28;20055;-83
2021/12/27 05:35:21;;;;;;;21.42;11.48;;;;;;;1.80;92.96;100087.63;10452066;28;20047;-84
2021/12/27 05:40:23;;;;;;;21.17;11.00;;;;;;;1.85;93.29;100084.50;10432869;28;20389;-83
2021/12/27 05:45:26;;;;;;;23.63;11.32;;;;;;;1.84;93.13;100077.69;10476728;28;20064;-84
2021/12/27 05:50:28;;;;;;;21.55;11.40;;;;;;;1.90;93.03;100072.03;10468085;28;20049;-84
2021/12/27 05:55:30;;;;;;;23.05;11.27;;;;;;;1.92;93.58;100074.63;10444344;28;20289;-84
2021/12/27 06:00:32;;;;;;;21.85;11.13;;;;;;;1.96;93.85;100067.22;10469457;28;20045;-84
2021/12/27 06:05:34;;;;;;;25.55;11.60;;;;;;;2.02;93.64;100066.66;10474657;28;20102;-84
2021/12/27 06:10:36;;;;;;;20.42;11.25;;;;;;;2.00;93.81;100053.00;10463166;28;20041;-85
2021/12/27 06:15:38;;;;;;;23.50;11.52;;;;;;;2.05;93.94;100052.44;10460698;28;20052;-84
2021/12/27 06:20:40;;;;;;;24.88;11.80;;;;;;;2.06;94.02;100056.72;10463715;28;20052;-84
2021/12/27 06:25:43;;;;;;;23.27;11.57;;;;;;;2.09;93.92;100055.97;10472908;28;20407;-84
2021/12/27 06:30:45;;;;;;;19.52;11.32;;;;;;;2.14;93.95;100046.88;10495760;28;20106;-85
2021/12/27 06:35:47;;;;;;;21.42;10.55;;;;;;;2.17;93.88;100041.97;10460738;28;20037;-84
2021/12/27 06:40:49;;;;;;;27.65;13.00;;;;;;;2.20;94.19;100051.41;10431857;28;20048;-85
2021/12/27 06:45:51;;;;;;;25.23;11.75;;;;;;;2.24;94.13;100044.78;10467305;28;20048;-84
2021/12/27 06:50:52;;;;;;;29.80;13.70;;;;;;;2.29;94.53;100053.47;10443192;28;20056;-84
2021/12/27 06:55:59;;;;;;;25.83;13.82;;;;;;;2.32;94.51;100056.16;10448008;28;20373;-84
2021/12/27 07:01:01;;;;;;;28.05;14.02;;;;;;;2.35;94.22;100062.25;10459618;28;20048;-83
2021/12/27 07:06:03;;;;;;;24.42;12.18;;;;;;;2.40;93.98;100053.97;10496376;28;20462;-84
2021/12/27 07:11:06;;;;;;;22.60;12.10;;;;;;;2.42;93.87;100058.31;10466122;28;20388;-84
2021/12/27 07:16:08;;;;;;;22.33;11.43;;;;;;;2.41;94.15;100061.69;10467231;28;20041;-84
2021/12/27 07:21:09;;;;;;;21.70;11.32;;;;;;;2.45;93.78;100068.63;10475666;28;20078;-84
2021/12/27 07:26:11;;;;;;;22.15;11.77;;;;;;;2.46;93.68;100065.28;10457136;28;20045;-83
2021/12/27 07:31:29;;;;;;;24.67;11.45;;;;;;;2.46;93.68;100070.38;10493000;28;20074;-84
2021/12/27 07:36:32;;;;;;;25.08;13.02;;;;;;;2.48;93.97;100068.78;10484746;28;20091;-84
2021/12/27 07:41:33;;;;;;;20.58;12.65;;;;;;;2.51;94.33;100073.97;10501857;28;20049;-84
2021/12/27 07:46:40;;;;;;;22.17;11.60;;;;;;;2.56;94.15;100068.25;10501275;28;20041;-84
2021/12/27 07:51:43;;;;;;;21.63;11.38;;;;;;;2.57;93.72;100062.38;10460160;28;20067;-84
2021/12/27 07:56:45;;;;;;;21.65;10.60;;;;;;;2.57;94.01;100058.13;10468407;28;20041;-84
2021/12/27 08:01:47;;;;;;;18.52;9.73;;;;;;;2.60;94.12;100053.19;10463989;28;20056;-84
2021/12/27 08:06:49;;;;;;;17.13;10.75;;;;;;;2.66;94.16;100047.50;10468051;28;20407;-84
2021/12/27 08:11:51;;;;;;;18.75;10.18;;;;;;;2.72;94.57;100046.91;10482195;28;20404;-84
2021/12/27 08:16:53;;;;;;;18.13;10.45;;;;;;;2.77;93.97;100041.22;10471539;28;20045;-84
2021/12/27 08:21:54;;;;;;;17.75;10.13;;;;;;;2.80;93.91;100043.88;10469278;28;20068;-84
2021/12/27 08:26:57;;;;;;;17.48;9.45;;;;;;;2.84;93.93;100037.25;10476465;28;20372;-84
2021/12/27 08:31:58;;;;;;;17.30;9.77;;;;;;;2.95;93.73;100040.25;10435459;28;20032;-83
2021/12/27 08:37:00;;;;;;;16.08;8.82;;;;;;;2.97;93.75;100034.44;10459167;28;20040;-84
2021/12/27 08:42:07;;;;;;;21.50;10.82;;;;;;;3.03;93.64;100031.28;10460039;28;20415;-84
2021/12/27 08:47:10;;;;;;;19.88;9.13;;;;;;;3.06;93.62;100018.69;10453962;28;20068;-84
2021/12/27 08:52:12;;;;;;;16.92;9.88;;;;;;;3.07;93.94;100015.34;10481664;28;20068;-83
2021/12/27 08:57:14;;;;;;;17.42;10.25;;;;;;;3.07;93.48;100014.44;10445697;28;20044;-84
2021/12/27 09:02:16;;;;;;;16.35;9.30;;;;;;;3.07;93.26;100017.88;10437407;28;20036;-84
2021/12/27 09:07:18;;;;;;;17.55;9.55;;;;;;;3.05;93.62;100011.84;10476175;28;20407;-84
2021/12/27 09:12:20;;;;;;;18.55;9.95;;;;;;;3.16;94.04;100008.06;10442422;28;20045;-84
2021/12/27 09:17:22;;;;;;;21.52;11.25;;;;;;;3.32;94.13;100022.31;10455256;28;20132;-84
2021/12/27 09:22:24;;;;;;;22.63;11.27;;;;;;;3.47;93.65;100022.06;10448326;28;20045;-84
2021/12/27 09:27:26;;;;;;;19.85;10.68;;;;;;;3.59;92.47;100020.81;10471862;28;20056;-84
2021/12/27 09:32:27;;;;;;;18.38;10.85;;;;;;;3.61;93.11;100014.13;10456407;28;20120;-84
2021/12/27 09:37:29;;;;;;;16.40;9.48;;;;;;;3.68;92.64;100010.13;10428274;28;20063;-84
2021/12/27 09:42:35;;;;;;;16.92;9.77;;;;;;;3.76;92.45;100009.59;10456088;28;20086;-84
2021/12/27 09:47:37;;;;;;;20.25;10.57;;;;;;;3.80;92.00;100014.03;10461412;28;20040;-85
2021/12/27 09:52:50;;;;;;;16.50;10.30;;;;;;;3.87;92.08;100016.81;10471952;28;20385;-84
2021/12/27 09:57:54;;;;;;;16.13;8.50;;;;;;;3.90;91.70;100006.75;10452378;28;20067;-84
2021/12/27 10:02:57;;;;;;;13.70;9.05;;;;;;;3.93;91.83;100006.84;10476922;28;20056;-84
2021/12/27 10:07:59;;;;;;;16.15;9.18;;;;;;;3.95;91.84;100005.22;10469482;28;20051;-84
2021/12/27 10:13:09;;;;;;;20.00;9.15;;;;;;;4.00;91.33;100008.81;10451359;28;20052;-83
2021/12/27 10:18:15;;;;;;;14.05;9.02;;;;;;;4.12;91.45;99998.22;10447867;28;20044;-84
2021/12/27 10:23:18;;;;;;;16.35;9.35;;;;;;;4.17;91.31;99990.72;10448264;28;20036;-85
2021/12/27 10:28:26;;;;;;;16.13;9.23;;;;;;;4.29;91.32;99978.44;10455349;28;20419;-84
2021/12/27 10:33:30;;;;;;;17.10;9.27;;;;;;;4.54;90.85;99956.34;10457002;28;20090;-84
2021/12/27 10:38:36;;;;;;;15.68;9.68;;;;;;;4.62;90.72;99957.50;10439878;28;20049;-85
2021/12/27 10:43:47;;;;;;;15.43;9.07;;;;;;;4.70;90.41;99961.19;10455499;28;20044;-85
2021/12/27 10:49:09;;;;;;;18.13;9.15;;;;;;;4.72;90.29;99962.13;10461943;28;20096;-85
2021/12/27 10:54:10;;;;;;;14.30;8.27;;;;;;;4.80;90.07;99959.81;10454524;28;20049;-84
2021/12/27 10:59:16;;;;;;;16.08;9.63;;;;;;;4.88;89.33;99957.50;10435640;28;20052;-85
2021/12/27 11:04:19;;;;;;;15.55;9.23;;;;;;;5.00;89.03;99960.47;10453077;28;20044;-84
2021/12/27 11:09:21;;;;;;;14.05;8.32;;;;;;;5.07;88.91;99954.75;10441168;28;20064;-84
2021/12/27 11:14:23;;;;;;;12.80;7.72;;;;;;;5.15;88.90;99954.16;10481504;28;20094;-85
2021/12/27 11:19:24;;;;;;;14.82;8.45;;;;;;;5.17;88.45;99944.84;10455650;28;20055;-85
2021/12/27 11:24:26;;;;;;;16.00;9.23;;;;;;;5.29;87.76;99922.25;10459985;28;20056;-85
2021/12/27 11:29:28;;;;;;;11.98;7.70;;;;;;;5.47;87.92;99903.22;10456570;28;20087;-85
2021/12/27 11:34:29;;;;;;;16.20;9.98;;;;;;;5.71;87.32;99901.38;10485537;28;20044;-85
2021/12/27 11:39:42;;;;;;;15.32;9.63;;;;;;;6.01;85.78;99903.13;10468264;28;20106;-85
2021/12/27 11:44:53;;;;;;;13.77;8.60;;;;;;;5.94;85.69;99890.94;10453518;28;20453;-85
2021/12/27 11:50:07;;;;;;;13.80;9.15;;;;;;;6.31;84.72;99889.44;10471076;28;20450;-84
2021/12/27 11:55:15;;;;;;;13.38;8.25;;;;;;;6.79;82.97;99874.47;10461254;28;20385;-84
2021/12/27 12:00:16;;;;;;;11.88;6.50;;;;;;;6.01;84.44;99890.34;10445006;28;20469;-85
2021/12/27 12:05:36;;;;;;;13.05;7.70;;;;;;;5.94;85.49;99900.31;10453727;28;20049;-84
2021/12/27 12:10:50;;;;;;;11.50;7.10;;;;;;;6.27;84.73;99890.19;10457374;28;20041;-83
2021/12/27 12:16:18;;;;;;;13.23;7.38;;;;;;;6.55;84.28;99860.22;10464856;28;20045;-84
2021/12/27 12:21:29;;;;;;;13.63;8.02;;;;;;;6.45;83.64;99860.78;10482199;28;20056;-84
2021/12/27 12:26:47;;;;;;;10.35;7.60;;;;;;;6.64;83.57;99852.78;10466869;28;20175;-84
2021/12/27 12:32:02;;;;;;;9.32;6.38;;;;;;;6.58;84.00;99860.31;10460040;28;20040;-84
2021/12/27 12:37:07;;;;;;;11.23;7.15;;;;;;;6.70;83.00;99840.94;10473403;28;20484;-84
2021/12/27 12:42:19;;;;;;;10.27;6.82;;;;;;;6.47;83.70;99837.00;10471817;28;20044;-84
2021/12/27 12:47:22;;;;;;;11.18;6.50;;;;;;;6.47;84.48;99831.00;10467516;28;20055;-83
2021/12/27 12:52:25;;;;;;;12.65;7.60;;;;;;;6.39;84.71;99825.69;10482649;28;20045;-84
2021/12/27 12:57:27;;;;;;;10.93;6.63;;;;;;;6.37;84.45;99816.25;10463895;28;20045;-84
2021/12/27 13:02:31;;;;;;;13.27;6.70;;;;;;;6.37;84.62;99824.78;10424388;28;1048946;-84
2021/12/27 13:07:49;;;;;;;11.98;7.28;;;;;;;6.32;84.81;99817.00;10460639;28;20048;-84
2021/12/27 13:12:54;;;;;;;11.05;6.35;;;;;;;6.30;85.75;99818.63;10478972;28;20132;-84
2021/12/27 13:18:08;;;;;;;14.20;7.10;;;;;;;6.39;85.63;99817.16;10481733;28;20044;-84
2021/12/27 13:23:12;;;;;;;13.27;7.38;;;;;;;6.48;85.55;99820.78;10480865;28;20071;-84
2021/12/27 13:28:19;;;;;;;10.57;7.05;;;;;;;6.53;85.37;99825.19;10455641;28;20035;-84
2021/12/27 13:33:24;;;;;;;13.70;7.35;;;;;;;6.62;85.08;99831.38;10462632;28;20095;-84
2021/12/27 13:38:32;;;;;;;10.07;6.85;;;;;;;6.65;85.09;99830.59;10475298;28;20044;-84
2021/12/27 13:43:47;;;;;;;11.90;6.47;;;;;;;6.67;85.06;99822.13;10462464;28;20044;-84
2021/12/27 13:48:50;;;;;;;10.43;6.63;;;;;;;6.59;85.52;99825.31;10446559;28;20055;-84
2021/12/27 13:53:56;;;;;;;11.70;6.45;;;;;;;6.52;87.35;99816.63;10473388;28;20048;-84
2021/12/27 13:59:07;;;;;;;11.20;6.30;;;;;;;6.45;88.93;99817.28;10471333;28;20052;-85
2021/12/27 14:04:20;;;;;;;11.63;6.93;;;;;;;6.44;90.42;99815.59;10473626;28;20052;-85
2021/12/27 14:09:31;;;;;;;12.02;6.95;;;;;;;6.38;89.65;99805.19;10464349;28;20961;-85
2021/12/27 14:14:48;;;;;;;10.60;7.30;;;;;;;6.32;90.18;99793.97;10442276;28;20040;-84
2021/12/27 14:20:06;;;;;;;10.60;7.25;;;;;;;6.18;89.71;99792.75;10445674;28;20048;-84
2021/12/27 14:25:11;;;;;;;10.60;7.35;;;;;;;6.17;89.62;99801.25;10446247;28;20044;-85
2021/12/27 14:30:18;;;;;;;13.40;8.40;;;;;;;6.23;90.06;99793.72;10482814;28;20403;-84
2021/12/27 14:35:41;;;;;;;16.98;8.27;;;;;;;6.22;89.70;99804.78;10461758;28;20438;-84
2021/12/27 14:40:46;;;;;;;12.55;7.53;;;;;;;6.23;89.84;99811.63;10456652;28;20048;-84
2021/12/27 14:45:48;;;;;;;12.30;6.95;;;;;;;6.22;90.08;99809.91;10452468;28;20384;-84
2021/12/27 14:50:50;;;;;;;11.68;8.27;;;;;;;6.18;90.11;99818.31;10460325;28;20393;-85
2021/12/27 14:55:54;;;;;;;10.32;7.45;;;;;;;6.26;90.03;99806.59;10433654;28;20045;-84
2021/12/27 15:00:56;;;;;;;12.40;8.10;;;;;;;6.26;90.32;99811.72;10460936;28;20100;-84
2021/12/27 15:05:59;;;;;;;11.93;7.95;;;;;;;6.16;89.96;99794.41;10454216;28;20120;-84
2021/12/27 15:11:00;;;;;;;10.15;7.03;;;;;;;6.13;90.76;99799.44;10472348;28;20041;-84
2021/12/27 15:16:03;;;;;;;11.95;7.20;;;;;;;6.16;90.34;99799.50;10461021;28;20087;-84
2021/12/27 15:21:05;;;;;;;9.82;6.72;;;;;;;6.09;90.51;99792.50;10471360;28;20053;-84
2021/12/27 15:26:07;;;;;;;11.85;7.35;;;;;;;5.97;90.01;99788.78;10464263;28;20040;-84
2021/12/27 15:31:09;;;;;;;11.43;7.45;;;;;;;5.84;90.27;99791.84;10479929;28;20056;-84
2021/12/27 15:36:11;;;;;;;12.48;7.93;;;;;;;5.78;90.83;99781.44;10471215;28;20044;-83
2021/12/27 15:41:13;;;;;;;12.90;8.55;;;;;;;5.69;91.79;99782.06;10469051;28;20076;-83
2021/12/27 15:46:16;;;;;;;11.77;7.65;;;;;;;5.72;91.20;99783.00;10477577;28;20041;-84
2021/12/27 15:51:19;;;;;;;13.10;8.13;;;;;;;5.76;91.49;99783.94;10458458;28;20055;-84
2021/12/27 15:56:21;;;;;;;12.75;7.72;;;;;;;5.79;92.02;99773.81;10483458;28;20376;-84
2021/12/27 16:01:23;;;;;;;12.43;7.53;;;;;;;5.81;91.64;99778.97;10474529;28;20044;-84
2021/12/27 16:06:25;;;;;;;16.58;7.68;;;;;;;5.83;90.74;99785.00;10467968;28;20041;-85
2021/12/27 16:11:26;;;;;;;13.10;7.63;;;;;;;5.92;91.64;99785.22;10459874;28;20099;-84
2021/12/27 16:16:28;;;;;;;12.15;8.48;;;;;;;6.00;91.50;99772.69;10458902;28;20055;-85
2021/12/27 16:21:30;;;;;;;14.32;8.98;;;;;;;5.96;91.98;99771.72;10447460;28;20056;-85
2021/12/27 16:26:31;;;;;;;12.68;8.07;;;;;;;5.94;92.87;99768.25;10485282;28;20091;-85
2021/12/27 16:31:33;;;;;;;10.77;7.72;;;;;;;5.95;93.22;99767.41;10484713;28;20048;-86
2021/12/27 16:36:36;;;;;;;11.60;7.38;;;;;;;6.03;92.92;99773.63;10453585;28;20045;-85
2021/12/27 16:41:38;;;;;;;9.80;5.65;;;;;;;6.07;92.62;99763.50;10471526;28;20083;-86
2021/12/27 16:46:40;;;;;;;9.70;5.97;;;;;;;6.07;92.93;99758.38;10467563;28;20060;-86
2021/12/27 16:51:42;;;;;;;7.68;5.70;;;;;;;6.07;93.27;99751.56;10464632;28;20569;-85
2021/12/27 16:56:45;;;;;;;14.48;7.30;;;;;;;6.09;93.45;99751.59;10458001;28;20052;-86
2021/12/27 17:01:47;;;;;;;9.13;5.32;;;;;;;6.03;93.96;99753.19;10451661;28;20110;-86
2021/12/27 17:06:52;;;;;;;9.10;5.63;;;;;;;6.02;93.76;99743.78;10441410;28;20045;-87
2021/12/27 17:11:54;;;;;;;9.43;6.38;;;;;;;6.03;94.05;99748.06;10467296;28;20052;-86
2021/12/27 17:16:56;;;;;;;8.23;5.43;;;;;;;6.03;94.11;99742.94;10434895;28;20075;-86
2021/12/27 17:21:58;;;;;;;7.30;5.45;;;;;;;5.99;94.43;99738.59;10445707;28;20118;-85
2021/12/27 17:26:59;;;;;;;9.43;6.28;;;;;;;5.97;94.28;99735.09;10452442;28;20153;-83
2021/12/27 17:32:01;;;;;;;10.95;6.47;;;;;;;5.96;93.89;99729.91;10433065;28;20056;-85
2021/12/27 17:37:06;;;;;;;8.38;5.80;;;;;;;5.97;94.09;99735.09;10485662;28;20033;-86
2021/12/27 17:42:08;;;;;;;10.65;6.13;;;;;;;5.96;94.06;99741.03;10481851;28;20068;-85
2021/12/27 17:47:10;;;;;;;9.95;6.07;;;;;;;5.96;93.65;99740.16;10470559;28;20039;-85
2021/12/27 17:52:12;;;;;;;14.65;6.85;;;;;;;5.98;94.01;99738.50;10466360;28;20091;-85
2021/12/27 17:57:16;;;;;;;10.68;6.20;;;;;;;6.00;93.82;99730.06;10465684;28;20519;-85
2021/12/27 18:02:30;;;;;;;14.48;10.45;;;;;;;6.01;94.20;99729.25;10461596;28;20056;-84
2021/12/27 18:07:32;;;;;;;14.57;8.50;;;;;;;6.07;94.03;99735.38;10467206;28;20044;-85
2021/12/27 18:12:35;;;;;;;20.27;15.18;;;;;;;6.11;93.94;99730.34;10482022;28;20041;-85
2021/12/27 18:17:38;;;;;;;23.15;18.80;;;;;;;6.13;94.22;99723.59;10446767;28;20492;-85
2021/12/27 18:22:40;;;;;;;11.00;7.18;;;;;;;6.10;94.07;99722.66;10480225;28;20057;-85
2021/12/27 18:27:42;;;;;;;16.20;10.68;;;;;;;6.09;94.04;99720.91;10460359;28;20045;-85
2021/12/27 18:32:44;;;;;;;9.55;7.35;;;;;;;6.06;93.94;99715.75;10460148;28;20048;-85
2021/12/27 18:37:48;;;;;;;11.40;7.13;;;;;;;6.09;93.90;99711.56;10478982;28;20124;-84
2021/12/27 18:42:51;;;;;;;12.95;8.05;;;;;;;6.15;93.76;99711.72;10448527;28;20048;-84
2021/12/27 18:47:57;;;;;;;17.65;10.27;;;;;;;6.19;93.90;99712.66;10457442;28;20045;-85
2021/12/27 18:52:58;;;;;;;12.32;7.00;;;;;;;6.26;93.43;99709.41;10465427;28;20124;-84
2021/12/27 18:58:05;;;;;;;15.48;9.85;;;;;;;6.33;93.10;99706.16;10455943;28;20048;-85
2021/12/27 19:03:09;;;;;;;17.35;9.93;;;;;;;6.42;93.22;99700.41;10448151;28;20094;-85
2021/12/27 19:08:13;;;;;;;14.18;8.18;;;;;;;6.51;92.67;99710.00;10462329;28;20564;-85
2021/12/27 19:13:16;;;;;;;14.30;9.43;;;;;;;6.56;92.84;99707.53;10471545;28;20428;-84
2021/12/27 19:18:17;;;;;;;14.38;9.48;;;;;;;6.60;92.59;99707.63;10457239;28;20052;-85
2021/12/27 19:23:19;;;;;;;15.15;7.82;;;;;;;6.63;92.53;99715.38;10453396;28;20504;-84
2021/12/27 19:28:21;;;;;;;14.45;8.38;;;;;;;6.67;91.74;99706.94;10461615;28;20041;-84
2021/12/27 19:33:24;;;;;;;13.95;7.70;;;;;;;6.65;92.52;99706.06;10467140;28;20067;-84
2021/12/27 19:38:26;;;;;;;15.02;8.82;;;;;;;6.65;92.04;99698.38;10442687;28;20052;-85
2021/12/27 19:43:28;;;;;;;15.88;8.38;;;;;;;6.63;92.37;99689.78;10482182;28;20060;-85
2021/12/27 19:48:32;;;;;;;24.70;14.50;;;;;;;6.68;92.03;99692.47;10479943;28;20048;-85
2021/12/27 19:53:34;;;;;;;15.18;9.95;;;;;;;6.65;92.40;99690.69;10502369;28;20044;-85
2021/12/27 19:58:36;;;;;;;28.27;19.98;;;;;;;6.66;92.02;99687.28;10448086;28;20055;-84
2021/12/27 20:03:38;;;;;;;33.15;20.83;;;;;;;6.66;91.86;99689.84;10469578;28;20582;-84
2021/12/27 20:08:40;;;;;;;31.13;15.30;;;;;;;6.73;91.78;99690.00;10474485;28;20464;-83
2021/12/27 20:13:43;;;;;;;45.70;28.27;;;;;;;6.76;91.76;99682.38;10472486;28;20045;-84
2021/12/27 20:18:45;;;;;;;44.15;22.30;;;;;;;6.75;92.37;99690.88;10449481;28;20132;-84
2021/12/27 20:23:46;;;;;;;30.65;16.80;;;;;;;6.71;92.12;99686.53;10442268;28;20055;-84
2021/12/27 20:28:48;;;;;;;44.63;26.60;;;;;;;6.71;92.81;99689.09;10499856;28;20072;-84
2021/12/27 20:33:50;;;;;;;25.27;16.60;;;;;;;6.72;92.47;99683.16;10440477;28;20045;-85
2021/12/27 20:38:52;;;;;;;18.10;11.68;;;;;;;6.66;93.49;99664.25;10458656;28;20472;-85
2021/12/27 20:43:53;;;;;;;16.52;10.68;;;;;;;6.67;93.32;99660.88;10480520;28;20071;-86
2021/12/27 20:48:56;;;;;;;17.65;11.18;;;;;;;6.65;93.45;99654.88;10448273;28;20045;-85
2021/12/27 20:53:58;;;;;;;16.80;11.20;;;;;;;6.66;93.76;99656.56;10489604;28;20048;-85
2021/12/27 20:59:02;;;;;;;21.45;15.20;;;;;;;6.67;93.73;99652.34;10485919;28;20044;-85
2021/12/27 21:04:04;;;;;;;21.55;12.20;;;;;;;6.65;94.55;99649.75;10469841;28;20040;-86
2021/12/27 21:09:08;;;;;;;17.60;11.88;;;;;;;6.66;94.58;99654.00;10484769;28;20044;-86
2021/12/27 21:14:12;;;;;;;19.60;13.35;;;;;;;6.72;94.48;99652.44;10478367;28;20045;-86
2021/12/27 21:19:15;;;;;;;17.42;11.07;;;;;;;6.72;93.76;99640.50;10454387;28;20041;-87
2021/12/27 21:24:16;;;;;;;18.05;12.65;;;;;;;6.76;94.09;99654.22;10461287;28;20515;-86
2021/12/27 21:29:20;;;;;;;15.85;10.70;;;;;;;6.73;93.83;99639.66;10466777;28;20048;-86
2021/12/27 21:34:22;;;;;;;18.70;11.27;;;;;;;6.70;94.14;99633.63;10450051;28;20048;-86
2021/12/27 21:39:24;;;;;;;20.02;11.88;;;;;;;6.70;94.69;99638.72;10443538;28;20498;-85
2021/12/27 21:44:25;;;;;;;20.75;15.30;;;;;;;6.76;94.79;99641.41;10464212;28;20041;-85
2021/12/27 21:49:28;;;;;;;21.85;16.35;;;;;;;6.72;95.04;99637.09;10458299;28;20059;-85
2021/12/27 21:54:30;;;;;;;26.42;19.55;;;;;;;6.72;95.31;99637.09;10448140;28;20086;-85
2021/12/27 21:59:35;;;;;;;27.33;20.00;;;;;;;6.74;95.84;99635.44;10457166;28;20041;-86
2021/12/27 22:04:36;;;;;;;30.83;18.95;;;;;;;6.69;96.42;99627.66;10482927;28;20045;-82
2021/12/27 22:09:38;;;;;;;30.20;19.67;;;;;;;6.69;96.47;99625.09;10475948;28;20045;-83
2021/12/27 22:14:42;;;;;;;31.75;19.00;;;;;;;6.66;96.63;99630.97;10485389;28;20080;-83
2021/12/27 22:19:44;;;;;;;32.65;21.58;;;;;;;6.67;97.34;99625.03;10454340;28;20484;-82
2021/12/27 22:24:46;;;;;;;37.17;24.75;;;;;;;6.70;96.95;99619.13;10463880;28;20395;-82
2021/12/27 22:29:49;;;;;;;38.97;22.95;;;;;;;6.67;96.88;99614.78;10479114;28;20056;-83
2021/12/27 22:34:51;;;;;;;35.03;20.33;;;;;;;6.67;96.83;99609.69;10474863;28;20407;-82
2021/12/27 22:39:53;;;;;;;32.13;19.25;;;;;;;6.65;97.30;99610.47;10481051;28;20053;-81
2021/12/27 22:44:55;;;;;;;28.30;17.15;;;;;;;6.69;97.68;99596.94;10486874;28;20056;-82
2021/12/27 22:49:57;;;;;;;34.05;20.40;;;;;;;6.64;97.34;99598.50;10458830;28;20565;-82
2021/12/27 22:54:59;;;;;;;37.55;23.50;;;;;;;6.65;97.81;99601.13;10452878;28;20045;-82
2021/12/27 23:00:00;;;;;;;41.58;23.95;;;;;;;6.67;97.48;99589.19;10429633;28;20053;-81
2021/12/27 23:05:04;;;;;;;42.30;25.27;;;;;;;6.70;97.44;99592.66;10484017;28;20045;-82
2021/12/27 23:10:06;;;;;;;36.45;19.88;;;;;;;6.67;97.82;99584.09;10483774;28;20452;-82
2021/12/27 23:15:09;;;;;;;45.95;26.52;;;;;;;6.74;97.58;99574.00;10459695;28;20047;-82
2021/12/27 23:20:13;;;;;;;45.67;25.88;;;;;;;6.71;97.64;99574.78;10486280;28;20048;-82